Time;durP1;ratioP1;P1;durP2;ratioP2;P2;SDS_P1;SDS_P2;PMS_P1;PMS_P2;Temp;Humidity;BMP_temperature;BMP_pressure;BME280_temperature;BME280_humidity;BME280_pressure;Samples;Min_cycle;Max_cycle;Signal;HPM_P1;HPM_P2
2023/03/05 00:02:20;;;;;;;55.88;43.55;;;;;;;7.09;100.00;99813.63;5032860;28;20037;-73
2023/03/05 00:04:46;;;;;;;55.58;41.92;;;;;;;6.91;100.00;99796.28;5032318;28;20469;-74
2023/03/05 00:07:13;;;;;;;56.70;43.15;;;;;;;7.21;100.00;99869.03;5032026;28;20036;-72
2023/03/05 00:09:38;;;;;;;54.25;42.47;;;;;;;6.65;100.00;99778.16;5031248;28;20116;-70
2023/03/05 00:12:04;;;;;;;52.25;40.20;;;;;;;7.28;100.00;99875.69;5032046;28;20059;-72
2023/03/05 00:14:30;;;;;;;54.90;41.80;;;;;;;6.97;100.00;99824.78;5031819;28;20643;-71
2023/03/05 00:16:55;;;;;;;58.22;43.80;;;;;;;7.27;100.00;99866.41;5031299;28;20045;-72
2023/03/05 00:19:21;;;;;;;61.53;44.65;;;;;;;7.24;100.00;99881.63;5032009;28;20045;-72
2023/03/05 00:21:46;;;;;;;54.83;40.78;;;;;;;7.30;100.00;99875.66;5032060;28;20040;-72
2023/03/05 00:24:17;;;;;;;51.90;39.22;;;;;;;6.88;100.00;99809.78;5031135;28;20039;-72
2023/03/05 00:26:43;;;;;;;54.42;43.22;;;;;;;7.00;100.00;99870.22;5032481;28;20056;-72
2023/03/05 00:29:13;;;;;;;55.88;42.55;;;;;;;6.90;100.00;99860.28;5032826;28;20468;-72
2023/03/05 00:31:38;;;;;;;58.70;42.72;;;;;;;7.01;100.00;99874.41;5031401;28;20101;-71
2023/03/05 00:34:07;;;;;;;58.85;44.35;;;;;;;6.77;100.00;99871.44;5031240;28;20065;-72
2023/03/05 00:36:33;;;;;;;63.15;45.30;;;;;;;6.42;100.00;99834.03;5031027;28;20037;-72
2023/03/05 00:38:59;;;;;;;57.53;43.30;;;;;;;6.44;100.00;99791.13;5030030;28;20156;-72
2023/03/05 00:41:25;;;;;;;56.40;42.30;;;;;;;6.80;100.00;99858.75;5034872;28;20060;-72
2023/03/05 00:43:50;;;;;;;57.65;42.42;;;;;;;6.78;100.00;99865.50;5031184;28;20037;-72
2023/03/05 00:46:16;;;;;;;60.53;42.95;;;;;;;6.43;100.00;99802.91;5029888;28;20112;-72
2023/03/05 00:48:42;;;;;;;55.78;40.42;;;;;;;6.68;100.00;99823.56;5030191;28;20491;-72
2023/03/05 00:51:08;;;;;;;55.63;41.05;;;;;;;6.59;100.00;99816.13;5031269;28;20512;-72
2023/03/05 00:53:33;;;;;;;55.78;40.17;;;;;;;6.50;100.00;99791.00;5031582;28;20037;-71
2023/03/05 00:55:59;;;;;;;49.28;37.75;;;;;;;6.54;100.00;99801.03;5031241;28;20044;-71
2023/03/05 00:58:24;;;;;;;48.65;35.35;;;;;;;6.76;100.00;99847.84;5030620;28;20044;-71
2023/03/05 01:00:49;;;;;;;52.28;34.25;;;;;;;6.51;100.00;99791.00;5029671;28;20056;-71
2023/03/05 01:03:18;;;;;;;49.92;33.72;;;;;;;6.29;100.00;99784.59;5029839;28;20108;-72
2023/03/05 01:05:44;;;;;;;49.25;33.40;;;;;;;6.72;100.00;99830.22;5029755;28;20049;-72
2023/03/05 01:08:10;;;;;;;52.83;32.85;;;;;;;6.59;100.00;99829.59;5031008;28;20025;-73
2023/03/05 01:10:35;;;;;;;47.58;32.10;;;;;;;6.57;100.00;99849.00;5031045;28;20511;-71
2023/03/05 01:13:01;;;;;;;44.55;31.58;;;;;;;6.41;100.00;99839.09;5030889;28;20108;-72
2023/03/05 01:15:27;;;;;;;51.00;33.22;;;;;;;5.95;100.00;99741.31;5029158;28;20516;-72
2023/03/05 01:17:52;;;;;;;63.85;42.45;;;;;;;6.34;100.00;99808.06;5029289;28;20030;-72
2023/03/05 01:20:19;;;;;;;57.33;38.92;;;;;;;6.61;100.00;99848.09;5011051;28;20037;-72
2023/03/05 01:22:46;;;;;;;58.17;37.97;;;;;;;6.16;100.00;99778.00;5010818;28;20026;-72
2023/03/05 01:25:12;;;;;;;63.00;41.47;;;;;;;5.82;100.00;99733.91;5009261;28;20029;-72
2023/03/05 01:27:38;;;;;;;61.08;40.22;;;;;;;6.43;100.00;99835.72;5009979;28;20030;-72
2023/03/05 01:30:06;;;;;;;58.33;40.00;;;;;;;6.06;100.00;99826.97;5040315;28;20033;-72
2023/03/05 01:32:32;;;;;;;53.60;36.78;;;;;;;5.76;100.00;99785.25;5050576;28;20037;-72
2023/03/05 01:35:00;;;;;;;53.72;36.25;;;;;;;6.27;100.00;99826.69;5048947;28;20493;-72
2023/03/05 01:37:25;;;;;;;56.77;36.87;;;;;;;6.12;100.00;99829.38;4999721;28;1442270;-72
2023/03/05 01:39:50;;;;;;;58.60;38.95;;;;;;;6.15;100.00;99821.78;5049914;28;20133;-71
2023/03/05 01:42:18;;;;;;;54.58;36.50;;;;;;;6.02;100.00;99770.63;5049769;28;20499;-72
2023/03/05 01:45:09;;;;;;;57.67;39.42;;;;;;;5.96;100.00;99774.94;5051193;28;20025;-72
2023/03/05 01:47:35;;;;;;;54.72;39.58;;;;;;;6.33;100.00;99830.81;5049637;28;20033;-71
2023/03/05 01:50:01;;;;;;;52.30;36.97;;;;;;;5.90;100.00;99783.41;5049567;28;20120;-71
2023/03/05 01:52:30;;;;;;;49.25;34.50;;;;;;;6.11;100.00;99823.53;5050549;28;20060;-72
2023/03/05 01:55:00;;;;;;;52.45;34.45;;;;;;;6.13;100.00;99833.59;5051163;28;20082;-72
2023/03/05 01:57:33;;;;;;;52.97;34.63;;;;;;;6.14;100.00;99822.63;5051162;28;20049;-72
2023/03/05 02:00:04;;;;;;;53.60;34.03;;;;;;;5.84;100.00;99823.00;5049638;28;20033;-71
2023/03/05 02:02:30;;;;;;;51.47;34.17;;;;;;;6.04;100.00;99814.34;5032346;28;20026;-71
2023/03/05 02:05:26;;;;;;;56.55;35.83;;;;;;;6.05;100.00;99816.03;5010923;28;20038;-71
2023/03/05 02:07:55;;;;;;;51.63;35.50;;;;;;;5.96;100.00;99817.84;5010593;28;20069;-71
2023/03/05 02:10:24;;;;;;;44.85;32.15;;;;;;;6.05;100.00;99815.19;5011214;28;20030;-72
2023/03/05 02:12:53;;;;;;;54.08;35.58;;;;;;;5.88;100.00;99812.03;5019779;28;20124;-72
2023/03/05 02:15:19;;;;;;;52.60;33.42;;;;;;;5.90;100.00;99818.72;5031073;28;20048;-71
2023/03/05 02:17:45;;;;;;;47.38;33.13;;;;;;;5.77;100.00;99784.38;5031411;28;20029;-72
2023/03/05 02:20:17;;;;;;;54.22;35.40;;;;;;;5.39;100.00;99748.69;5031385;28;20416;-72
2023/03/05 02:22:43;;;;;;;53.35;34.50;;;;;;;5.47;100.00;99713.34;5030805;28;20112;-72
2023/03/05 02:25:28;;;;;;;48.70;34.20;;;;;;;5.94;100.00;99811.97;5030725;28;20044;-72
2023/03/05 02:28:11;;;;;;;51.88;34.30;;;;;;;5.47;100.00;99741.06;5030695;28;20033;-72
2023/03/05 02:30:37;;;;;;;54.63;36.95;;;;;;;5.58;100.00;99802.25;5028984;28;20033;-71
2023/03/05 02:33:03;;;;;;;55.85;38.25;;;;;;;5.43;100.00;99812.50;5029196;28;20057;-74
2023/03/05 02:35:29;;;;;;;56.92;37.72;;;;;;;5.41;100.00;99810.00;5010646;28;20034;-75
2023/03/05 02:37:55;;;;;;;43.88;29.45;;;;;;;8.37;100.00;99795.16;5010761;28;20493;-70
2023/03/05 02:40:20;;;;;;;59.47;38.97;;;;;;;5.48;100.00;99745.22;5030025;28;20037;-70
2023/03/05 02:42:45;;;;;;;53.95;38.63;;;;;;;5.35;100.00;99743.72;5034122;28;20044;-71
2023/03/05 02:45:12;;;;;;;52.80;36.47;;;;;;;6.33;100.00;99750.88;5033881;28;20024;-71
2023/03/05 02:47:37;;;;;;;60.75;40.75;;;;;;;5.12;100.00;99747.31;5033722;28;20065;-70
2023/03/05 02:50:04;;;;;;;64.28;45.88;;;;;;;4.98;100.00;99733.16;5033283;28;20526;-69
2023/03/05 02:52:30;;;;;;;54.13;38.13;;;;;;;5.86;100.00;99804.47;5034407;28;20056;-74
2023/03/05 02:54:55;;;;;;;56.67;38.90;;;;;;;4.95;100.00;99759.19;5033484;28;20029;-69
2023/03/05 02:57:21;;;;;;;52.97;35.92;;;;;;;5.22;100.00;99756.44;5032909;28;20087;-70
2023/03/05 02:59:46;;;;;;;51.38;35.70;;;;;;;5.55;100.00;99807.31;5033168;28;20040;-72
2023/03/05 03:02:12;;;;;;;51.95;36.15;;;;;;;5.40;100.00;99795.72;5034004;28;20025;-72
2023/03/05 03:04:38;;;;;;;49.20;35.47;;;;;;;5.14;100.00;99738.03;5033185;28;20033;-70
2023/03/05 03:07:04;;;;;;;50.17;35.95;;;;;;;4.86;100.00;99740.81;5033146;28;20511;-70
2023/03/05 03:09:30;;;;;;;51.55;34.13;;;;;;;5.36;100.00;99781.50;5032219;28;20040;-70
2023/03/05 03:11:55;;;;;;;48.75;32.90;;;;;;;5.44;100.00;99797.38;5033581;28;20033;-73
2023/03/05 03:14:21;;;;;;;49.08;34.53;;;;;;;5.19;100.00;99738.81;5027530;28;20054;-73
2023/03/05 03:16:46;;;;;;;50.88;34.63;;;;;;;5.43;100.00;99777.22;5020919;28;20128;-73
2023/03/05 03:19:12;;;;;;;57.60;38.28;;;;;;;5.23;100.00;99727.84;5029618;28;20018;-73
2023/03/05 03:21:37;;;;;;;61.25;38.28;;;;;;;6.85;100.00;99711.28;5013080;28;20076;-71
2023/03/05 03:24:03;;;;;;;64.45;39.42;;;;;;;4.94;100.00;99727.31;5027016;28;20096;-73
2023/03/05 03:26:29;;;;;;;57.53;36.65;;;;;;;4.55;100.00;99711.75;5015573;28;20099;-73
2023/03/05 03:28:54;;;;;;;47.92;31.02;;;;;;;4.82;100.00;99761.84;5013251;28;20022;-70
2023/03/05 03:31:20;;;;;;;41.17;28.00;;;;;;;4.29;100.00;99727.88;5011104;28;20064;-73
2023/03/05 03:33:45;;;;;;;35.90;25.95;;;;;;;4.44;100.00;99773.91;5011812;28;20030;-72
2023/03/05 03:36:11;;;;;;;37.63;29.77;;;;;;;4.12;100.00;99724.63;5012315;28;20034;-72
2023/03/05 03:38:37;;;;;;;33.45;24.30;;;;;;;3.99;100.00;99790.06;5010603;28;20047;-70
2023/03/05 03:41:05;;;;;;;35.97;26.55;;;;;;;3.60;100.00;99737.47;5011619;28;20484;-70
2023/03/05 03:43:31;;;;;;;38.33;27.50;;;;;;;3.75;100.00;99795.19;5011882;28;20376;-71
2023/03/05 03:45:56;;;;;;;41.65;29.45;;;;;;;3.73;100.00;99749.13;5012110;28;20116;-72
2023/03/05 03:48:21;;;;;;;41.88;29.02;;;;;;;4.07;100.00;99785.84;5012368;28;20034;-71
2023/03/05 03:50:47;;;;;;;46.25;28.17;;;;;;;4.23;100.00;99785.78;5010000;28;20029;-71
2023/03/05 03:53:13;;;;;;;51.38;27.95;;;;;;;4.43;100.00;99807.44;5011605;28;20492;-72
2023/03/05 03:55:40;;;;;;;56.78;28.15;;;;;;;3.85;100.00;99732.31;5012362;28;20030;-72
2023/03/05 03:58:05;;;;;;;60.85;30.60;;;;;;;4.19;100.00;99800.88;5012407;28;20018;-72
2023/03/05 04:00:31;;;;;;;86.47;36.60;;;;;;;3.99;100.00;99748.19;5011535;28;20500;-74
2023/03/05 04:02:56;;;;;;;109.32;43.08;;;;;;;4.09;100.00;99800.09;5012824;28;20493;-72
2023/03/05 04:05:22;;;;;;;94.35;45.53;;;;;;;4.25;100.00;99794.16;5012734;28;20096;-72
2023/03/05 04:07:47;;;;;;;150.32;39.22;;;;;;;4.54;100.00;99788.06;5012971;28;20416;-72
2023/03/05 04:10:13;;;;;;;160.20;36.72;;;;;;;4.31;100.00;99783.19;5011728;28;20117;-72
2023/03/05 04:12:38;;;;;;;154.18;40.03;;;;;;;4.32;100.00;99775.63;5012639;28;20045;-74
2023/03/05 04:15:06;;;;;;;294.25;51.35;;;;;;;4.02;100.00;99768.25;5012679;28;20037;-72
2023/03/05 04:17:32;;;;;;;155.43;42.80;;;;;;;4.55;100.00;99793.13;5011605;28;20034;-73
2023/03/05 04:19:57;;;;;;;232.15;40.80;;;;;;;3.95;100.00;99740.66;5012704;28;20052;-71
2023/03/05 04:22:23;;;;;;;304.95;39.05;;;;;;;3.88;100.00;99780.06;5012980;28;20026;-71
2023/03/05 04:24:48;;;;;;;240.93;37.65;;;;;;;3.55;100.00;99727.44;5012656;28;20103;-73
2023/03/05 04:27:14;;;;;;;271.88;41.92;;;;;;;3.79;100.00;99749.09;5011693;28;20475;-71
2023/03/05 04:29:39;;;;;;;330.17;42.10;;;;;;;3.99;100.00;99790.06;5012550;28;20100;-72
2023/03/05 04:32:06;;;;;;;316.50;43.88;;;;;;;3.96;100.00;99800.16;5011480;28;20459;-71
2023/03/05 04:34:32;;;;;;;261.83;41.28;;;;;;;4.00;100.00;99794.28;5010613;28;20048;-72
2023/03/05 04:36:57;;;;;;;385.08;46.70;;;;;;;4.29;100.00;99812.56;5012430;28;20108;-72
2023/03/05 04:39:24;;;;;;;305.95;44.13;;;;;;;3.93;100.00;99753.22;5012108;28;20050;-72
2023/03/05 04:41:49;;;;;;;339.00;53.22;;;;;;;3.68;100.00;99708.97;5010549;28;20061;-72
2023/03/05 04:44:16;;;;;;;311.08;55.05;;;;;;;4.38;100.00;99820.03;5011192;28;20500;-73
2023/03/05 04:46:42;;;;;;;361.05;65.90;;;;;;;4.39;100.00;99820.06;5011898;28;20030;-72
2023/03/05 04:49:07;;;;;;;557.28;70.32;;;;;;;4.01;100.00;99765.75;5011187;28;20124;-73
2023/03/05 04:51:33;;;;;;;282.52;52.47;;;;;;;4.54;100.00;99834.22;5011870;28;20030;-72
2023/03/05 04:53:58;;;;;;;323.63;52.38;;;;;;;4.33;100.00;99789.91;5012118;28;20043;-72
2023/03/05 04:56:23;;;;;;;277.52;51.63;;;;;;;4.76;100.00;99850.84;5010739;28;20021;-73
2023/03/05 04:58:49;;;;;;;191.60;46.40;;;;;;;4.24;100.00;99758.91;5011749;28;20053;-73
2023/03/05 05:01:14;;;;;;;448.63;53.00;;;;;;;4.61;100.00;99862.72;5011688;28;20026;-73
2023/03/05 05:03:40;;;;;;;278.50;48.25;;;;;;;4.65;100.00;99875.28;5011545;28;20040;-75
2023/03/05 05:06:05;;;;;;;143.27;47.25;;;;;;;4.70;100.00;99865.16;5010803;28;20030;-73
2023/03/05 05:08:31;;;;;;;429.17;58.05;;;;;;;4.78;100.00;99891.13;5012123;28;20063;-72
2023/03/05 05:11:06;;;;;;;368.75;55.17;;;;;;;4.52;100.00;99828.34;5010847;28;20030;-73
2023/03/05 05:13:32;;;;;;;418.08;62.60;;;;;;;4.54;100.00;99844.28;5010874;28;20104;-73
2023/03/05 05:15:57;;;;;;;203.00;48.83;;;;;;;4.97;100.00;99893.50;5012190;28;20475;-74
2023/03/05 05:18:23;;;;;;;187.07;47.85;;;;;;;4.92;100.00;99894.38;5011803;28;20030;-74
2023/03/05 05:20:49;;;;;;;149.70;45.90;;;;;;;5.03;100.00;99901.00;5012338;28;20030;-72
2023/03/05 05:23:15;;;;;;;210.45;52.72;;;;;;;5.06;100.00;99902.69;5010874;28;21233;-74
2023/03/05 05:25:42;;;;;;;180.25;54.25;;;;;;;5.15;100.00;99925.31;5012599;28;20465;-74
2023/03/05 05:28:09;;;;;;;279.77;59.55;;;;;;;4.86;100.00;99885.19;5012009;28;20033;-72
2023/03/05 05:30:34;;;;;;;255.20;55.08;;;;;;;5.02;100.00;99931.25;5011607;28;20084;-71
2023/03/05 05:33:00;;;;;;;821.28;75.75;;;;;;;4.99;100.00;99922.03;5011920;28;20030;-73
2023/03/05 05:35:25;;;;;;;249.30;56.47;;;;;;;5.18;100.00;99890.84;5011766;28;20089;-72
2023/03/05 05:37:51;;;;;;;419.63;59.03;;;;;;;5.15;100.00;99938.72;5010921;28;20065;-71
2023/03/05 05:40:16;;;;;;;651.50;69.38;;;;;;;4.74;100.00;99900.38;5010956;28;20037;-71
2023/03/05 05:42:42;;;;;;;134.13;48.95;;;;;;;5.14;100.00;99924.47;5010248;28;20555;-72
2023/03/05 05:45:08;;;;;;;290.20;51.67;;;;;;;4.34;100.00;99914.84;5010062;28;20096;-71
2023/03/05 05:47:33;;;;;;;242.55;49.58;;;;;;;4.55;100.00;99964.25;5011347;28;20038;-70
2023/03/05 05:49:59;;;;;;;209.52;49.20;;;;;;;4.45;100.00;99906.41;5010091;28;20026;-72
2023/03/05 05:52:24;;;;;;;211.38;49.45;;;;;;;4.34;100.00;99907.28;5011033;28;20424;-71
2023/03/05 05:54:49;;;;;;;269.52;48.80;;;;;;;4.51;100.00;99974.34;5010852;28;20057;-71
2023/03/05 05:57:17;;;;;;;232.48;47.20;;;;;;;3.95;100.00;99912.47;5011343;28;20029;-71
2023/03/05 05:59:42;;;;;;;310.65;46.22;;;;;;;3.89;100.00;99980.34;5011129;28;20034;-71
2023/03/05 06:02:09;;;;;;;152.40;41.30;;;;;;;4.18;100.00;99940.06;5011124;28;20042;-70
2023/03/05 06:04:36;;;;;;;412.60;47.05;;;;;;;4.28;100.00;99990.34;5010149;28;20477;-69
2023/03/05 06:07:02;;;;;;;200.70;40.60;;;;;;;4.34;100.00;99949.22;5011348;28;20069;-71
2023/03/05 06:09:27;;;;;;;164.82;40.58;;;;;;;3.92;100.00;99946.84;5011401;28;20068;-71
2023/03/05 06:11:53;;;;;;;149.88;41.45;;;;;;;4.74;100.00;100006.13;5009771;28;20112;-71
2023/03/05 06:14:18;;;;;;;324.98;45.85;;;;;;;4.28;100.00;99964.34;5010954;28;20124;-69
2023/03/05 06:16:44;;;;;;;233.95;38.75;;;;;;;4.06;100.00;99991.22;5013447;28;20029;-71
2023/03/05 06:19:14;;;;;;;192.25;36.00;;;;;;;4.19;100.00;100007.13;5014787;28;20503;-71
2023/03/05 06:21:41;;;;;;;246.52;40.38;;;;;;;3.84;100.00;99969.50;5014708;28;20034;-71
2023/03/05 06:24:07;;;;;;;190.85;36.22;;;;;;;4.20;100.00;100011.31;5014855;28;20087;-71
2023/03/05 06:26:33;;;;;;;182.32;39.03;;;;;;;4.22;100.00;99997.91;5014537;28;20030;-71
2023/03/05 06:28:58;;;;;;;152.82;37.47;;;;;;;3.96;100.00;99969.44;5014389;28;20084;-71
2023/03/05 06:31:25;;;;;;;226.02;37.55;;;;;;;3.99;100.00;100032.31;5015042;28;20056;-72
2023/03/05 06:33:53;;;;;;;178.38;38.72;;;;;;;4.20;100.00;99978.59;5014548;28;20033;-72
2023/03/05 06:36:20;;;;;;;176.18;39.58;;;;;;;4.39;100.00;99997.88;5014431;28;20176;-71
2023/03/05 06:38:46;;;;;;;97.22;50.38;;;;;;;4.73;100.00;99999.44;5029961;28;20440;-74
2023/03/05 06:41:15;;;;;;;81.38;44.83;;;;;;;4.63;100.00;100001.97;5014474;28;20041;-72
2023/03/05 06:43:42;;;;;;;103.07;36.05;;;;;;;4.39;100.00;99991.16;5014694;28;20030;-72
2023/03/05 06:46:15;;;;;;;80.82;35.58;;;;;;;4.61;100.00;99975.97;5013287;28;20026;-70
2023/03/05 06:48:42;;;;;;;90.13;36.10;;;;;;;4.81;100.00;99962.47;5030071;28;20128;-72
2023/03/05 06:51:19;;;;;;;59.05;35.97;;;;;;;4.66;100.00;99903.78;5015021;28;20033;-73
2023/03/05 06:53:46;;;;;;;93.95;38.55;;;;;;;4.69;100.00;99909.66;5013063;28;20187;-72
2023/03/05 06:56:15;;;;;;;71.68;37.13;;;;;;;5.28;100.00;99962.16;5014117;28;20469;-71
2023/03/05 06:58:42;;;;;;;66.78;36.72;;;;;;;4.76;100.00;99921.34;5014026;28;20032;-72
2023/03/05 07:01:08;;;;;;;70.05;38.05;;;;;;;5.17;100.00;99957.19;5013792;28;20037;-72
2023/03/05 07:03:35;;;;;;;70.75;35.30;;;;;;;5.23;100.00;99957.16;5014029;28;20547;-72
2023/03/05 07:06:05;;;;;;;60.22;32.92;;;;;;;5.55;100.00;99951.84;5013568;28;20072;-71
2023/03/05 07:08:31;;;;;;;109.25;34.67;;;;;;;5.19;100.00;99937.84;5013615;28;20137;-72
2023/03/05 07:10:57;;;;;;;60.65;35.85;;;;;;;5.07;100.00;99874.16;5014092;28;20036;-72
2023/03/05 07:13:23;;;;;;;97.25;35.75;;;;;;;5.17;100.00;99936.19;5014190;28;20040;-72
2023/03/05 07:15:48;;;;;;;89.10;31.65;;;;;;;4.96;100.00;99924.59;5014024;28;20030;-71
2023/03/05 07:18:13;;;;;;;116.13;35.22;;;;;;;4.93;100.00;99917.03;5013686;28;20092;-71
2023/03/05 07:20:39;;;;;;;78.18;34.40;;;;;;;5.22;100.00;99925.25;5012670;28;20026;-71
2023/03/05 07:23:04;;;;;;;58.92;32.22;;;;;;;5.21;100.00;99908.44;5013490;28;20034;-70
2023/03/05 07:25:30;;;;;;;63.80;32.53;;;;;;;5.37;100.00;99923.47;5012033;28;20134;-72
2023/03/05 07:27:56;;;;;;;75.00;34.22;;;;;;;5.31;100.00;99865.56;5013572;28;20041;-71
2023/03/05 07:30:22;;;;;;;73.72;35.53;;;;;;;5.28;100.00;99849.59;5013685;28;20032;-71
2023/03/05 07:32:48;;;;;;;84.30;37.95;;;;;;;5.85;100.00;99881.00;5013556;28;20038;-71
2023/03/05 07:35:13;;;;;;;78.97;39.22;;;;;;;6.79;100.00;99907.59;5013475;28;20416;-70
2023/03/05 07:37:39;;;;;;;66.03;38.13;;;;;;;7.25;100.00;99893.41;5012863;28;20033;-71
2023/03/05 07:40:05;;;;;;;60.30;36.58;;;;;;;7.11;100.00;99847.28;5012833;28;20059;-71
2023/03/05 07:42:31;;;;;;;61.50;36.70;;;;;;;6.73;100.00;99888.34;5013465;28;20080;-71
2023/03/05 07:44:57;;;;;;;66.05;41.20;;;;;;;7.19;100.00;99862.34;5013354;28;20058;-72
2023/03/05 07:47:23;;;;;;;66.75;42.95;;;;;;;7.36;100.00;99875.53;5012059;28;20555;-72
2023/03/05 07:49:49;;;;;;;70.47;47.00;;;;;;;7.41;100.00;99874.59;5012804;28;20087;-71
2023/03/05 07:52:14;;;;;;;81.57;50.45;;;;;;;6.84;100.00;99808.16;5013092;28;20058;-71
2023/03/05 07:54:40;;;;;;;79.82;50.58;;;;;;;7.48;100.00;99850.06;5012763;28;20034;-71
2023/03/05 07:57:06;;;;;;;72.55;47.58;;;;;;;7.41;100.00;99802.97;5011938;28;20030;-72
2023/03/05 07:59:32;;;;;;;72.50;47.78;;;;;;;7.01;100.00;99802.84;5013017;28;20034;-73
2023/03/05 08:01:58;;;;;;;73.45;50.40;;;;;;;6.61;100.00;99792.53;5012092;28;20505;-73
2023/03/05 08:04:23;;;;;;;69.43;47.42;;;;;;;7.53;100.00;99828.88;5013014;28;20033;-71
2023/03/05 08:06:49;;;;;;;73.57;52.08;;;;;;;7.55;100.00;99833.91;5011556;28;20092;-73
2023/03/05 08:09:15;;;;;;;63.38;43.42;;;;;;;7.82;100.00;99772.66;5012882;28;20083;-71
2023/03/05 08:11:41;;;;;;;77.15;50.42;;;;;;;8.02;100.00;99792.50;5013310;28;20037;-72
2023/03/05 08:14:07;;;;;;;77.35;48.67;;;;;;;8.02;100.00;99760.44;5012875;28;20022;-73
2023/03/05 08:16:32;;;;;;;81.22;48.90;;;;;;;8.38;100.00;99761.34;5012708;28;20026;-72
2023/03/05 08:18:58;;;;;;;83.28;50.33;;;;;;;7.94;100.00;99738.69;5012657;28;20029;-72
2023/03/05 08:21:32;;;;;;;88.13;53.50;;;;;;;8.81;100.00;99796.66;5012247;28;20377;-73
2023/03/05 08:23:58;;;;;;;83.57;52.70;;;;;;;8.44;100.00;99701.25;5012703;28;20060;-75
2023/03/05 08:26:25;;;;;;;85.97;54.88;;;;;;;9.39;100.00;99776.56;5012270;28;20026;-73
2023/03/05 08:28:51;;;;;;;84.78;54.00;;;;;;;8.46;100.00;99775.50;5012806;28;20026;-72
2023/03/05 08:31:18;;;;;;;91.13;59.13;;;;;;;8.99;100.00;99783.53;5011380;28;20477;-71
2023/03/05 08:33:44;;;;;;;78.93;52.40;;;;;;;8.84;100.00;99736.59;5012242;28;20120;-71
2023/03/05 08:36:09;;;;;;;74.57;48.33;;;;;;;9.05;100.00;99751.25;5027012;28;20570;-74
2023/03/05 08:38:35;;;;;;;66.05;45.70;;;;;;;9.60;100.00;99766.69;5012366;28;20050;-74
2023/03/05 08:41:02;;;;;;;69.28;45.45;;;;;;;9.38;100.00;99754.63;5010284;28;20021;-73
2023/03/05 08:43:29;;;;;;;57.83;38.22;;;;;;;9.59;100.00;99738.81;5012356;28;20231;-73
2023/03/05 08:45:55;;;;;;;65.53;44.67;;;;;;;9.33;100.00;99709.06;5011123;28;20496;-73
2023/03/05 08:48:20;;;;;;;74.57;50.92;;;;;;;9.74;100.00;99702.84;5011170;28;20045;-73
2023/03/05 08:50:46;;;;;;;45.95;31.35;;;;;;;9.49;100.00;99743.31;5012259;28;20045;-73
2023/03/05 08:53:11;;;;;;;42.20;28.20;;;;;;;9.29;100.00;99696.53;5012340;28;20096;-72
2023/03/05 08:55:37;;;;;;;40.63;28.52;;;;;;;9.93;100.00;99739.50;5012435;28;20409;-73
2023/03/05 08:58:03;;;;;;;36.42;26.90;;;;;;;9.73;100.00;99736.72;5011946;28;20052;-74
2023/03/05 09:00:29;;;;;;;38.65;28.42;;;;;;;9.33;100.00;99695.59;5010911;28;20022;-72
2023/03/05 09:02:54;;;;;;;36.05;26.88;;;;;;;9.01;100.00;99683.78;5011860;28;20126;-72
2023/03/05 09:05:19;;;;;;;39.63;28.15;;;;;;;9.20;100.00;99663.81;5010724;28;20033;-72
2023/03/05 09:07:45;;;;;;;33.33;26.17;;;;;;;8.82;100.00;99681.72;5010568;28;20065;-73
2023/03/05 09:10:13;;;;;;;35.90;27.00;;;;;;;9.45;100.00;99731.56;5011918;28;20065;-73
2023/03/05 09:12:39;;;;;;;36.22;25.73;;;;;;;8.89;100.00;99676.47;5027178;28;20041;-72
2023/03/05 09:15:07;;;;;;;35.28;26.27;;;;;;;8.77;100.00;99689.47;5011806;28;20041;-72
2023/03/05 09:17:35;;;;;;;37.38;26.27;;;;;;;9.30;100.00;99726.94;5012322;28;20026;-72
2023/03/05 09:20:02;;;;;;;38.63;27.33;;;;;;;9.78;100.00;99729.81;5011297;28;20040;-72
2023/03/05 09:22:28;;;;;;;33.78;25.85;;;;;;;9.55;100.00;99707.59;5011619;28;20099;-72
2023/03/05 09:24:54;;;;;;;40.15;27.58;;;;;;;9.56;100.00;99718.59;5010783;28;20026;-72
2023/03/05 09:27:19;;;;;;;43.33;29.08;;;;;;;9.96;100.00;99718.28;5012282;28;20029;-73
2023/03/05 09:29:45;;;;;;;59.42;39.42;;;;;;;9.86;100.00;99717.72;5011460;28;20515;-72
2023/03/05 09:32:10;;;;;;;45.45;30.70;;;;;;;10.18;100.00;99714.25;5010449;28;20025;-72
2023/03/05 09:34:36;;;;;;;74.65;47.75;;;;;;;10.39;100.00;99698.34;5011677;28;20030;-72
2023/03/05 09:37:02;;;;;;;87.43;55.42;;;;;;;9.84;100.00;99643.31;5011208;28;20034;-72
2023/03/05 09:39:28;;;;;;;47.78;31.80;;;;;;;9.93;100.00;99648.09;5009920;28;20058;-72
2023/03/05 09:42:15;;;;;;;50.28;31.85;;;;;;;10.82;100.00;99696.03;5011117;28;20044;-72
2023/03/05 09:44:40;;;;;;;50.70;33.38;;;;;;;11.28;100.00;99682.56;5011313;28;20034;-71
2023/03/05 09:47:21;;;;;;;57.78;36.05;;;;;;;11.56;100.00;99682.41;5010937;28;20036;-71
2023/03/05 09:50:03;;;;;;;48.33;32.15;;;;;;;11.27;100.00;99680.91;5012766;28;20068;-72
2023/03/05 09:52:29;;;;;;;51.65;33.15;;;;;;;11.13;100.00;99672.94;5015409;28;20503;-72
2023/03/05 09:54:56;;;;;;;48.42;32.45;;;;;;;10.51;100.00;99611.53;5013867;28;20068;-72
2023/03/05 09:57:31;;;;;;;47.67;32.55;;;;;;;11.51;100.00;99636.75;5015045;28;20026;-72
2023/03/05 10:00:09;;;;;;;50.83;32.10;;;;;;;10.79;100.00;99591.09;5014849;28;20042;-72
2023/03/05 10:02:42;;;;;;;43.10;30.17;;;;;;;11.31;100.00;99632.41;5015352;28;20444;-72
2023/03/05 10:05:38;;;;;;;46.85;33.03;;;;;;;10.80;100.00;99577.47;5014959;28;20089;-72
2023/03/05 10:08:04;;;;;;;48.22;33.10;;;;;;;10.97;100.00;99565.81;5015038;28;20544;-72
2023/03/05 10:10:42;;;;;;;46.70;32.45;;;;;;;11.33;100.00;99617.06;5014409;28;20034;-72
2023/03/05 10:13:21;;;;;;;49.50;32.08;;;;;;;11.99;100.00;99608.59;5015048;28;20030;-73
2023/03/05 10:15:54;;;;;;;43.17;29.95;;;;;;;11.74;100.00;99539.16;5015045;28;20133;-73
2023/03/05 10:18:31;;;;;;;43.88;29.58;;;;;;;12.38;100.00;99588.34;5015110;28;20034;-73
2023/03/05 10:21:16;;;;;;;39.58;29.40;;;;;;;12.98;100.00;99514.25;5015133;28;20033;-73
2023/03/05 10:23:57;;;;;;;37.90;27.52;;;;;;;13.07;100.00;99570.03;5013801;28;20030;-72
2023/03/05 10:26:25;;;;;;;41.28;26.98;;;;;;;13.63;100.00;99499.28;5015069;28;20492;-72
2023/03/05 10:29:17;;;;;;;41.22;29.00;;;;;;;13.29;100.00;99534.16;5013438;28;20030;-73
2023/03/05 10:31:56;;;;;;;44.20;29.77;;;;;;;13.47;100.00;99521.34;5013554;28;20088;-73
2023/03/05 10:34:40;;;;;;;41.67;30.33;;;;;;;13.24;100.00;99524.13;5013446;28;20088;-73
2023/03/05 10:37:31;;;;;;;42.38;31.92;;;;;;;13.52;100.00;99500.69;5029679;28;20042;-73
2023/03/05 10:40:09;;;;;;;43.03;32.08;;;;;;;13.84;100.00;99497.41;5010604;28;20049;-72
2023/03/05 10:42:50;;;;;;;36.70;28.08;;;;;;;14.58;100.00;99491.91;5013346;28;20038;-73
2023/03/05 10:45:38;;;;;;;46.40;35.50;;;;;;;14.45;100.00;99409.06;5014702;28;20120;-74
2023/03/05 10:48:13;;;;;;;35.88;25.83;;;;;;;14.23;100.00;99467.31;5013279;28;20408;-73
2023/03/05 10:50:52;;;;;;;34.78;24.55;;;;;;;14.47;100.00;99393.63;5014382;28;20026;-73
2023/03/05 10:53:29;;;;;;;33.63;24.33;;;;;;;14.03;100.00;99431.69;5011156;28;20164;-73
2023/03/05 10:55:57;;;;;;;32.10;24.30;;;;;;;14.57;100.00;99425.50;5013155;28;20041;-72
2023/03/05 10:58:24;;;;;;;36.05;25.50;;;;;;;14.43;100.00;99367.41;5013047;28;20030;-72
2023/03/05 11:01:17;;;;;;;28.10;21.13;;;;;;;14.39;100.00;99411.09;5013486;28;20037;-72
2023/03/05 11:04:00;;;;;;;31.95;22.33;;;;;;;14.49;100.00;99410.56;5012704;28;20432;-73
2023/03/05 11:06:35;;;;;;;32.97;23.08;;;;;;;15.07;100.00;99410.78;5014207;28;20056;-73
2023/03/05 11:09:23;;;;;;;31.33;24.30;;;;;;;15.74;100.00;99407.81;5013169;28;20025;-72
2023/03/05 11:12:10;;;;;;;37.28;24.92;;;;;;;15.63;100.00;99407.59;5012666;28;20030;-73
2023/03/05 11:14:44;;;;;;;32.63;23.95;;;;;;;15.88;100.00;99396.75;5013780;28;20022;-72
2023/03/05 11:17:31;;;;;;;32.85;23.83;;;;;;;15.03;100.00;99324.81;5013890;28;20049;-72
2023/03/05 11:20:16;;;;;;;24.63;18.38;;;;;;;14.47;100.00;99378.28;5013523;28;20030;-72